sensor_id;sensor_type;location;lat;lon;timestamp;P1;durP1;ratioP1;P2;durP2;ratioP2
52982;SDS011;48698;45.736;13.926;2023-06-04T00:04:26;9.60;;;6.72;;
52982;SDS011;48698;45.736;13.926;2023-06-04T00:09:29;10.93;;;7.07;;
52982;SDS011;48698;45.736;13.926;2023-06-04T00:14:42;8.07;;;6.90;;
52982;SDS011;48698;45.736;13.926;2023-06-04T00:19:45;12.55;;;7.47;;
52982;SDS011;48698;45.736;13.926;2023-06-04T00:24:48;10.13;;;7.47;;
52982;SDS011;48698;45.736;13.926;2023-06-04T00:29:50;11.35;;;7.90;;
52982;SDS011;48698;45.736;13.926;2023-06-04T00:34:53;12.88;;;7.30;;
52982;SDS011;48698;45.736;13.926;2023-06-04T00:39:58;8.93;;;7.57;;
52982;SDS011;48698;45.736;13.926;2023-06-04T00:45:01;10.60;;;7.18;;
52982;SDS011;48698;45.736;13.926;2023-06-04T00:50:05;10.13;;;7.18;;
52982;SDS011;48698;45.736;13.926;2023-06-04T00:55:09;9.57;;;7.05;;
52982;SDS011;48698;45.736;13.926;2023-06-04T01:00:12;12.82;;;7.90;;
52982;SDS011;48698;45.736;13.926;2023-06-04T01:05:18;11.38;;;7.50;;
52982;SDS011;48698;45.736;13.926;2023-06-04T01:10:35;10.02;;;7.00;;
52982;SDS011;48698;45.736;13.926;2023-06-04T01:15:38;12.60;;;8.20;;
52982;SDS011;48698;45.736;13.926;2023-06-04T01:20:42;10.48;;;6.88;;
52982;SDS011;48698;45.736;13.926;2023-06-04T01:25:47;15.35;;;7.20;;
52982;SDS011;48698;45.736;13.926;2023-06-04T01:31:02;13.05;;;7.38;;
52982;SDS011;48698;45.736;13.926;2023-06-04T01:36:07;9.65;;;6.60;;
52982;SDS011;48698;45.736;13.926;2023-06-04T01:41:12;9.30;;;6.60;;
52982;SDS011;48698;45.736;13.926;2023-06-04T01:46:25;9.07;;;6.60;;
52982;SDS011;48698;45.736;13.926;2023-06-04T01:51:37;10.02;;;7.03;;
52982;SDS011;48698;45.736;13.926;2023-06-04T01:56:50;9.75;;;6.60;;
52982;SDS011;48698;45.736;13.926;2023-06-04T02:01:52;10.63;;;7.00;;
52982;SDS011;48698;45.736;13.926;2023-06-04T02:06:55;10.75;;;6.72;;
52982;SDS011;48698;45.736;13.926;2023-06-04T02:11:59;11.43;;;7.40;;
52982;SDS011;48698;45.736;13.926;2023-06-04T02:17:02;10.35;;;6.90;;
52982;SDS011;48698;45.736;13.926;2023-06-04T02:22:11;10.45;;;6.57;;
52982;SDS011;48698;45.736;13.926;2023-06-04T02:27:14;9.73;;;7.22;;
52982;SDS011;48698;45.736;13.926;2023-06-04T02:32:17;11.68;;;6.53;;
52982;SDS011;48698;45.736;13.926;2023-06-04T02:37:20;12.52;;;6.95;;
52982;SDS011;48698;45.736;13.926;2023-06-04T02:42:23;12.30;;;6.63;;
52982;SDS011;48698;45.736;13.926;2023-06-04T02:47:27;10.27;;;6.80;;
52982;SDS011;48698;45.736;13.926;2023-06-04T02:52:29;9.57;;;6.53;;
52982;SDS011;48698;45.736;13.926;2023-06-04T02:57:33;10.07;;;6.93;;
52982;SDS011;48698;45.736;13.926;2023-06-04T03:02:36;14.05;;;6.95;;
52982;SDS011;48698;45.736;13.926;2023-06-04T03:07:48;14.32;;;8.00;;
52982;SDS011;48698;45.736;13.926;2023-06-04T03:12:51;11.40;;;7.78;;
52982;SDS011;48698;45.736;13.926;2023-06-04T03:17:54;9.88;;;6.85;;
52982;SDS011;48698;45.736;13.926;2023-06-04T03:22:57;8.63;;;6.72;;
52982;SDS011;48698;45.736;13.926;2023-06-04T03:28:00;11.85;;;6.55;;
52982;SDS011;48698;45.736;13.926;2023-06-04T03:33:02;9.98;;;6.60;;
52982;SDS011;48698;45.736;13.926;2023-06-04T03:38:05;7.82;;;6.32;;
52982;SDS011;48698;45.736;13.926;2023-06-04T03:43:08;10.35;;;6.43;;
52982;SDS011;48698;45.736;13.926;2023-06-04T03:48:21;11.05;;;6.75;;
52982;SDS011;48698;45.736;13.926;2023-06-04T03:53:24;8.57;;;6.22;;
52982;SDS011;48698;45.736;13.926;2023-06-04T03:58:27;9.40;;;7.18;;
52982;SDS011;48698;45.736;13.926;2023-06-04T04:03:31;10.47;;;6.93;;
52982;SDS011;48698;45.736;13.926;2023-06-04T04:08:33;14.38;;;7.60;;
52982;SDS011;48698;45.736;13.926;2023-06-04T04:13:36;9.02;;;7.47;;
52982;SDS011;48698;45.736;13.926;2023-06-04T04:18:40;12.60;;;7.63;;
52982;SDS011;48698;45.736;13.926;2023-06-04T04:23:45;8.85;;;6.88;;
52982;SDS011;48698;45.736;13.926;2023-06-04T04:28:48;12.13;;;7.30;;
52982;SDS011;48698;45.736;13.926;2023-06-04T04:33:52;10.63;;;6.97;;
52982;SDS011;48698;45.736;13.926;2023-06-04T04:38:57;11.70;;;8.02;;
52982;SDS011;48698;45.736;13.926;2023-06-04T04:44:03;9.30;;;6.60;;
52982;SDS011;48698;45.736;13.926;2023-06-04T04:49:07;10.40;;;7.15;;
52982;SDS011;48698;45.736;13.926;2023-06-04T04:54:10;10.88;;;7.03;;
52982;SDS011;48698;45.736;13.926;2023-06-04T04:59:12;11.07;;;6.60;;
52982;SDS011;48698;45.736;13.926;2023-06-04T05:04:16;10.25;;;6.80;;
52982;SDS011;48698;45.736;13.926;2023-06-04T05:09:18;8.70;;;6.82;;
52982;SDS011;48698;45.736;13.926;2023-06-04T05:14:21;13.05;;;7.05;;
52982;SDS011;48698;45.736;13.926;2023-06-04T05:19:24;9.02;;;6.25;;
52982;SDS011;48698;45.736;13.926;2023-06-04T05:24:27;9.05;;;6.38;;
52982;SDS011;48698;45.736;13.926;2023-06-04T05:34:36;8.77;;;6.28;;
52982;SDS011;48698;45.736;13.926;2023-06-04T05:39:49;10.15;;;6.43;;
52982;SDS011;48698;45.736;13.926;2023-06-04T05:44:52;8.23;;;6.32;;
52982;SDS011;48698;45.736;13.926;2023-06-04T05:49:55;12.43;;;6.78;;
52982;SDS011;48698;45.736;13.926;2023-06-04T05:54:58;8.02;;;6.13;;
52982;SDS011;48698;45.736;13.926;2023-06-04T06:00:01;9.77;;;6.07;;
52982;SDS011;48698;45.736;13.926;2023-06-04T06:05:04;6.27;;;5.60;;
52982;SDS011;48698;45.736;13.926;2023-06-04T06:10:20;11.82;;;6.10;;
52982;SDS011;48698;45.736;13.926;2023-06-04T06:15:24;8.93;;;6.25;;
52982;SDS011;48698;45.736;13.926;2023-06-04T06:20:27;7.78;;;6.10;;
52982;SDS011;48698;45.736;13.926;2023-06-04T06:30:34;8.75;;;5.55;;
52982;SDS011;48698;45.736;13.926;2023-06-04T06:35:36;8.02;;;5.63;;
52982;SDS011;48698;45.736;13.926;2023-06-04T06:40:40;10.05;;;5.28;;
52982;SDS011;48698;45.736;13.926;2023-06-04T06:45:43;12.38;;;5.57;;
52982;SDS011;48698;45.736;13.926;2023-06-04T06:50:45;9.57;;;5.78;;
52982;SDS011;48698;45.736;13.926;2023-06-04T06:55:48;10.77;;;5.53;;
52982;SDS011;48698;45.736;13.926;2023-06-04T07:00:51;8.93;;;5.45;;
52982;SDS011;48698;45.736;13.926;2023-06-04T07:05:54;8.85;;;5.55;;
52982;SDS011;48698;45.736;13.926;2023-06-04T07:10:57;10.07;;;5.60;;
52982;SDS011;48698;45.736;13.926;2023-06-04T07:21:04;10.90;;;5.78;;
52982;SDS011;48698;45.736;13.926;2023-06-04T07:31:10;9.18;;;5.70;;
52982;SDS011;48698;45.736;13.926;2023-06-04T07:36:13;9.05;;;5.60;;
52982;SDS011;48698;45.736;13.926;2023-06-04T07:41:20;9.48;;;5.50;;
52982;SDS011;48698;45.736;13.926;2023-06-04T07:46:32;8.00;;;5.53;;
52982;SDS011;48698;45.736;13.926;2023-06-04T07:51:35;13.93;;;6.60;;
52982;SDS011;48698;45.736;13.926;2023-06-04T07:56:39;10.10;;;5.50;;
52982;SDS011;48698;45.736;13.926;2023-06-04T08:01:44;7.78;;;5.55;;
52982;SDS011;48698;45.736;13.926;2023-06-04T08:06:46;6.78;;;4.90;;
52982;SDS011;48698;45.736;13.926;2023-06-04T08:11:49;9.93;;;4.68;;
52982;SDS011;48698;45.736;13.926;2023-06-04T08:16:52;9.50;;;5.47;;
52982;SDS011;48698;45.736;13.926;2023-06-04T08:26:58;8.63;;;5.45;;
52982;SDS011;48698;45.736;13.926;2023-06-04T08:32:01;10.18;;;5.60;;
52982;SDS011;48698;45.736;13.926;2023-06-04T08:42:09;11.00;;;6.32;;
52982;SDS011;48698;45.736;13.926;2023-06-04T08:47:22;10.75;;;6.40;;
52982;SDS011;48698;45.736;13.926;2023-06-04T08:52:38;7.65;;;5.30;;
52982;SDS011;48698;45.736;13.926;2023-06-04T08:57:42;6.75;;;5.20;;
52982;SDS011;48698;45.736;13.926;2023-06-04T09:02:45;7.13;;;5.22;;
52982;SDS011;48698;45.736;13.926;2023-06-04T09:07:51;5.22;;;4.03;;
52982;SDS011;48698;45.736;13.926;2023-06-04T09:12:56;5.78;;;4.40;;
52982;SDS011;48698;45.736;13.926;2023-06-04T09:18:03;6.60;;;4.10;;
52982;SDS011;48698;45.736;13.926;2023-06-04T09:23:13;5.65;;;3.85;;
52982;SDS011;48698;45.736;13.926;2023-06-04T09:28:17;7.78;;;4.55;;
52982;SDS011;48698;45.736;13.926;2023-06-04T09:33:26;6.28;;;4.72;;
52982;SDS011;48698;45.736;13.926;2023-06-04T09:38:32;9.25;;;5.10;;
52982;SDS011;48698;45.736;13.926;2023-06-04T09:43:46;9.50;;;4.60;;
52982;SDS011;48698;45.736;13.926;2023-06-04T09:48:58;8.90;;;4.72;;
52982;SDS011;48698;45.736;13.926;2023-06-04T09:54:02;7.63;;;4.80;;
52982;SDS011;48698;45.736;13.926;2023-06-04T09:59:16;6.03;;;4.15;;
52982;SDS011;48698;45.736;13.926;2023-06-04T10:04:25;8.00;;;4.88;;
52982;SDS011;48698;45.736;13.926;2023-06-04T10:09:30;5.55;;;3.83;;
52982;SDS011;48698;45.736;13.926;2023-06-04T10:14:35;6.18;;;4.03;;
52982;SDS011;48698;45.736;13.926;2023-06-04T10:19:44;3.60;;;3.05;;
52982;SDS011;48698;45.736;13.926;2023-06-04T10:29:54;6.53;;;3.95;;
52982;SDS011;48698;45.736;13.926;2023-06-04T10:34:57;4.75;;;3.70;;
52982;SDS011;48698;45.736;13.926;2023-06-04T10:40:00;5.30;;;3.90;;
52982;SDS011;48698;45.736;13.926;2023-06-04T10:45:04;7.63;;;4.60;;
52982;SDS011;48698;45.736;13.926;2023-06-04T10:50:07;8.43;;;5.53;;
52982;SDS011;48698;45.736;13.926;2023-06-04T10:55:16;10.48;;;6.60;;
52982;SDS011;48698;45.736;13.926;2023-06-04T11:00:18;9.27;;;6.28;;
52982;SDS011;48698;45.736;13.926;2023-06-04T11:05:35;8.13;;;5.50;;
52982;SDS011;48698;45.736;13.926;2023-06-04T11:10:45;7.85;;;5.53;;
52982;SDS011;48698;45.736;13.926;2023-06-04T11:15:49;6.00;;;4.82;;
52982;SDS011;48698;45.736;13.926;2023-06-04T11:20:59;6.95;;;4.97;;
52982;SDS011;48698;45.736;13.926;2023-06-04T11:26:14;7.95;;;5.40;;
52982;SDS011;48698;45.736;13.926;2023-06-04T11:36:22;7.23;;;5.40;;
52982;SDS011;48698;45.736;13.926;2023-06-04T11:46:33;7.88;;;6.78;;
52982;SDS011;48698;45.736;13.926;2023-06-04T11:51:44;10.35;;;7.25;;
52982;SDS011;48698;45.736;13.926;2023-06-04T11:56:49;11.20;;;9.20;;
52982;SDS011;48698;45.736;13.926;2023-06-04T12:01:54;7.10;;;6.30;;
52982;SDS011;48698;45.736;13.926;2023-06-04T12:06:59;8.00;;;6.40;;
52982;SDS011;48698;45.736;13.926;2023-06-04T12:12:05;8.20;;;5.70;;
52982;SDS011;48698;45.736;13.926;2023-06-04T12:17:10;8.38;;;5.30;;
52982;SDS011;48698;45.736;13.926;2023-06-04T12:22:13;9.50;;;6.05;;
52982;SDS011;48698;45.736;13.926;2023-06-04T12:27:17;7.00;;;5.85;;
52982;SDS011;48698;45.736;13.926;2023-06-04T12:37:25;6.05;;;5.03;;
52982;SDS011;48698;45.736;13.926;2023-06-04T12:42:30;5.57;;;4.95;;
52982;SDS011;48698;45.736;13.926;2023-06-04T12:47:44;5.97;;;4.70;;
52982;SDS011;48698;45.736;13.926;2023-06-04T12:52:49;5.57;;;4.20;;
52982;SDS011;48698;45.736;13.926;2023-06-04T12:57:55;5.18;;;3.67;;
52982;SDS011;48698;45.736;13.926;2023-06-04T13:02:59;4.50;;;3.22;;
52982;SDS011;48698;45.736;13.926;2023-06-04T13:08:03;3.25;;;2.88;;
52982;SDS011;48698;45.736;13.926;2023-06-04T13:13:07;5.20;;;2.85;;
52982;SDS011;48698;45.736;13.926;2023-06-04T13:18:11;4.15;;;3.10;;
52982;SDS011;48698;45.736;13.926;2023-06-04T13:23:15;3.40;;;3.10;;
52982;SDS011;48698;45.736;13.926;2023-06-04T13:28:30;2.88;;;2.55;;
52982;SDS011;48698;45.736;13.926;2023-06-04T13:33:36;3.20;;;2.90;;
52982;SDS011;48698;45.736;13.926;2023-06-04T13:38:40;4.65;;;2.90;;
52982;SDS011;48698;45.736;13.926;2023-06-04T13:43:56;4.55;;;3.15;;
52982;SDS011;48698;45.736;13.926;2023-06-04T13:48:59;6.28;;;2.97;;
52982;SDS011;48698;45.736;13.926;2023-06-04T13:54:03;2.78;;;2.50;;
52982;SDS011;48698;45.736;13.926;2023-06-04T13:59:06;2.58;;;2.30;;
52982;SDS011;48698;45.736;13.926;2023-06-04T14:09:15;3.00;;;2.15;;
52982;SDS011;48698;45.736;13.926;2023-06-04T14:14:20;2.38;;;1.85;;
52982;SDS011;48698;45.736;13.926;2023-06-04T14:19:26;2.10;;;1.80;;
52982;SDS011;48698;45.736;13.926;2023-06-04T14:24:40;3.00;;;2.70;;
52982;SDS011;48698;45.736;13.926;2023-06-04T14:29:56;6.03;;;4.03;;
52982;SDS011;48698;45.736;13.926;2023-06-04T14:34:59;3.15;;;2.67;;
52982;SDS011;48698;45.736;13.926;2023-06-04T14:40:03;2.17;;;1.95;;
52982;SDS011;48698;45.736;13.926;2023-06-04T14:45:08;2.10;;;1.90;;
52982;SDS011;48698;45.736;13.926;2023-06-04T14:50:12;2.33;;;1.98;;
52982;SDS011;48698;45.736;13.926;2023-06-04T14:55:15;2.20;;;2.00;;
52982;SDS011;48698;45.736;13.926;2023-06-04T15:00:19;8.77;;;2.03;;
52982;SDS011;48698;45.736;13.926;2023-06-04T15:05:27;2.22;;;1.90;;
52982;SDS011;48698;45.736;13.926;2023-06-04T15:10:30;2.88;;;2.10;;
52982;SDS011;48698;45.736;13.926;2023-06-04T15:15:34;3.55;;;2.25;;
52982;SDS011;48698;45.736;13.926;2023-06-04T15:20:38;4.70;;;2.80;;
52982;SDS011;48698;45.736;13.926;2023-06-04T15:30:49;3.45;;;2.60;;
52982;SDS011;48698;45.736;13.926;2023-06-04T15:35:53;3.20;;;2.90;;
52982;SDS011;48698;45.736;13.926;2023-06-04T15:40:56;5.32;;;2.70;;
52982;SDS011;48698;45.736;13.926;2023-06-04T15:46:10;5.45;;;2.67;;
52982;SDS011;48698;45.736;13.926;2023-06-04T15:51:15;3.78;;;3.40;;
52982;SDS011;48698;45.736;13.926;2023-06-04T15:56:18;3.87;;;3.43;;
52982;SDS011;48698;45.736;13.926;2023-06-04T16:01:21;5.55;;;5.03;;
52982;SDS011;48698;45.736;13.926;2023-06-04T16:06:24;3.40;;;3.10;;
52982;SDS011;48698;45.736;13.926;2023-06-04T16:11:27;4.97;;;3.20;;
52982;SDS011;48698;45.736;13.926;2023-06-04T16:16:30;3.80;;;3.40;;
52982;SDS011;48698;45.736;13.926;2023-06-04T16:21:34;3.85;;;3.03;;
52982;SDS011;48698;45.736;13.926;2023-06-04T16:26:38;4.10;;;3.70;;
52982;SDS011;48698;45.736;13.926;2023-06-04T16:31:40;4.57;;;4.00;;
52982;SDS011;48698;45.736;13.926;2023-06-04T16:36:43;4.90;;;4.37;;
52982;SDS011;48698;45.736;13.926;2023-06-04T16:41:46;5.65;;;4.57;;
52982;SDS011;48698;45.736;13.926;2023-06-04T16:46:49;4.73;;;4.23;;
52982;SDS011;48698;45.736;13.926;2023-06-04T16:51:52;6.68;;;4.70;;
52982;SDS011;48698;45.736;13.926;2023-06-04T16:56:56;7.60;;;4.63;;
52982;SDS011;48698;45.736;13.926;2023-06-04T17:02:00;7.28;;;5.18;;
52982;SDS011;48698;45.736;13.926;2023-06-04T17:07:03;5.47;;;4.97;;
52982;SDS011;48698;45.736;13.926;2023-06-04T17:12:06;6.30;;;5.50;;
52982;SDS011;48698;45.736;13.926;2023-06-04T17:17:10;8.10;;;5.82;;
52982;SDS011;48698;45.736;13.926;2023-06-04T17:22:23;6.90;;;5.47;;
52982;SDS011;48698;45.736;13.926;2023-06-04T17:27:25;7.25;;;6.53;;
52982;SDS011;48698;45.736;13.926;2023-06-04T17:32:28;6.85;;;6.10;;
52982;SDS011;48698;45.736;13.926;2023-06-04T17:37:31;6.95;;;6.18;;
52982;SDS011;48698;45.736;13.926;2023-06-04T17:42:35;9.38;;;6.63;;
52982;SDS011;48698;45.736;13.926;2023-06-04T17:47:38;7.28;;;6.57;;
52982;SDS011;48698;45.736;13.926;2023-06-04T17:52:41;9.15;;;7.15;;
52982;SDS011;48698;45.736;13.926;2023-06-04T17:57:54;8.20;;;6.68;;
52982;SDS011;48698;45.736;13.926;2023-06-04T18:02:58;7.47;;;6.78;;
52982;SDS011;48698;45.736;13.926;2023-06-04T18:08:01;7.50;;;6.68;;
52982;SDS011;48698;45.736;13.926;2023-06-04T18:13:03;7.85;;;7.00;;
52982;SDS011;48698;45.736;13.926;2023-06-04T18:18:06;7.10;;;6.43;;
52982;SDS011;48698;45.736;13.926;2023-06-04T18:23:09;7.05;;;6.35;;
52982;SDS011;48698;45.736;13.926;2023-06-04T18:28:14;9.40;;;5.68;;
52982;SDS011;48698;45.736;13.926;2023-06-04T18:40:18;7.80;;;4.80;;
52982;SDS011;48698;45.736;13.926;2023-06-04T18:45:21;4.75;;;4.22;;
52982;SDS011;48698;45.736;13.926;2023-06-04T18:50:24;5.65;;;4.22;;
52982;SDS011;48698;45.736;13.926;2023-06-04T18:55:27;4.18;;;3.78;;
52982;SDS011;48698;45.736;13.926;2023-06-04T19:00:29;11.02;;;3.85;;
52982;SDS011;48698;45.736;13.926;2023-06-04T19:05:42;5.30;;;4.80;;
52982;SDS011;48698;45.736;13.926;2023-06-04T19:11:06;6.47;;;4.75;;
52982;SDS011;48698;45.736;13.926;2023-06-04T19:16:10;5.05;;;3.50;;
52982;SDS011;48698;45.736;13.926;2023-06-04T19:21:14;9.88;;;4.15;;
52982;SDS011;48698;45.736;13.926;2023-06-04T19:26:29;8.45;;;5.22;;
52982;SDS011;48698;45.736;13.926;2023-06-04T19:31:32;10.38;;;5.88;;
52982;SDS011;48698;45.736;13.926;2023-06-04T19:36:35;8.93;;;4.65;;
52982;SDS011;48698;45.736;13.926;2023-06-04T19:41:40;18.10;;;7.07;;
52982;SDS011;48698;45.736;13.926;2023-06-04T19:46:48;6.38;;;4.20;;
52982;SDS011;48698;45.736;13.926;2023-06-04T19:52:39;4.95;;;3.30;;
52982;SDS011;48698;45.736;13.926;2023-06-04T19:57:42;6.13;;;3.85;;
52982;SDS011;48698;45.736;13.926;2023-06-04T20:02:46;8.05;;;4.18;;
52982;SDS011;48698;45.736;13.926;2023-06-04T20:08:09;4.50;;;3.40;;
52982;SDS011;48698;45.736;13.926;2023-06-04T20:13:13;5.75;;;3.42;;
52982;SDS011;48698;45.736;13.926;2023-06-04T20:18:36;5.85;;;3.42;;
52982;SDS011;48698;45.736;13.926;2023-06-04T20:23:38;4.05;;;2.92;;
52982;SDS011;48698;45.736;13.926;2023-06-04T20:28:42;4.10;;;3.42;;
52982;SDS011;48698;45.736;13.926;2023-06-04T20:33:45;8.23;;;3.50;;
52982;SDS011;48698;45.736;13.926;2023-06-04T20:38:57;3.72;;;3.38;;
52982;SDS011;48698;45.736;13.926;2023-06-04T20:43:59;5.40;;;4.00;;
52982;SDS011;48698;45.736;13.926;2023-06-04T20:56:21;6.95;;;4.82;;
52982;SDS011;48698;45.736;13.926;2023-06-04T21:06:28;7.07;;;4.78;;
52982;SDS011;48698;45.736;13.926;2023-06-04T21:11:31;7.57;;;4.45;;
52982;SDS011;48698;45.736;13.926;2023-06-04T21:16:35;5.13;;;4.40;;
52982;SDS011;48698;45.736;13.926;2023-06-04T21:21:38;5.72;;;4.72;;
52982;SDS011;48698;45.736;13.926;2023-06-04T21:26:42;7.50;;;4.60;;
52982;SDS011;48698;45.736;13.926;2023-06-04T21:31:52;4.82;;;4.32;;
52982;SDS011;48698;45.736;13.926;2023-06-04T21:36:55;5.55;;;4.63;;
52982;SDS011;48698;45.736;13.926;2023-06-04T21:41:57;5.47;;;4.60;;
52982;SDS011;48698;45.736;13.926;2023-06-04T21:47:00;6.07;;;5.10;;
52982;SDS011;48698;45.736;13.926;2023-06-04T21:52:03;5.00;;;4.50;;
52982;SDS011;48698;45.736;13.926;2023-06-04T21:57:21;6.25;;;4.70;;
52982;SDS011;48698;45.736;13.926;2023-06-04T22:02:35;7.40;;;4.60;;
52982;SDS011;48698;45.736;13.926;2023-06-04T22:07:48;6.85;;;5.30;;
52982;SDS011;48698;45.736;13.926;2023-06-04T22:17:55;6.97;;;5.13;;
52982;SDS011;48698;45.736;13.926;2023-06-04T22:23:01;6.22;;;5.63;;
52982;SDS011;48698;45.736;13.926;2023-06-04T22:28:03;7.20;;;6.50;;
52982;SDS011;48698;45.736;13.926;2023-06-04T22:33:06;8.35;;;6.80;;
52982;SDS011;48698;45.736;13.926;2023-06-04T22:38:09;7.60;;;6.80;;
52982;SDS011;48698;45.736;13.926;2023-06-04T22:43:22;9.38;;;7.18;;
52982;SDS011;48698;45.736;13.926;2023-06-04T22:48:28;7.22;;;6.53;;
52982;SDS011;48698;45.736;13.926;2023-06-04T22:53:31;7.22;;;6.53;;
52982;SDS011;48698;45.736;13.926;2023-06-04T22:58:34;6.82;;;6.22;;
52982;SDS011;48698;45.736;13.926;2023-06-04T23:03:37;8.27;;;7.28;;
52982;SDS011;48698;45.736;13.926;2023-06-04T23:08:40;9.10;;;7.15;;
52982;SDS011;48698;45.736;13.926;2023-06-04T23:13:43;10.32;;;7.30;;
52982;SDS011;48698;45.736;13.926;2023-06-04T23:18:47;8.13;;;7.35;;
52982;SDS011;48698;45.736;13.926;2023-06-04T23:23:50;7.80;;;6.85;;
52982;SDS011;48698;45.736;13.926;2023-06-04T23:28:52;9.65;;;6.88;;
52982;SDS011;48698;45.736;13.926;2023-06-04T23:33:55;8.52;;;7.72;;
52982;SDS011;48698;45.736;13.926;2023-06-04T23:38:59;8.00;;;7.30;;
52982;SDS011;48698;45.736;13.926;2023-06-04T23:49:05;9.80;;;7.82;;
52982;SDS011;48698;45.736;13.926;2023-06-04T23:54:08;8.10;;;7.30;;
52982;SDS011;48698;45.736;13.926;2023-06-04T23:59:11;6.88;;;6.18;;
